sensor_id;sensor_type;location;lat;lon;timestamp;temperature;humidity
19389;DHT22;9830;41.876;23.474;2022-12-07T00:01:10;-0.40;99.90
19389;DHT22;9830;41.876;23.474;2022-12-07T00:03:37;-0.40;99.90
19389;DHT22;9830;41.876;23.474;2022-12-07T00:06:04;-0.40;99.90
19389;DHT22;9830;41.876;23.474;2022-12-07T00:08:31;-0.40;99.90
19389;DHT22;9830;41.876;23.474;2022-12-07T00:11:08;-0.50;99.90
19389;DHT22;9830;41.876;23.474;2022-12-07T00:13:35;-0.50;99.90
19389;DHT22;9830;41.876;23.474;2022-12-07T00:16:11;-0.50;99.90
19389;DHT22;9830;41.876;23.474;2022-12-07T00:18:38;-0.60;99.90
19389;DHT22;9830;41.876;23.474;2022-12-07T00:21:06;-0.60;99.90
19389;DHT22;9830;41.876;23.474;2022-12-07T00:23:33;-0.50;99.90
19389;DHT22;9830;41.876;23.474;2022-12-07T00:26:11;-0.60;99.90
19389;DHT22;9830;41.876;23.474;2022-12-07T00:28:38;-0.60;99.90
19389;DHT22;9830;41.876;23.474;2022-12-07T00:31:09;-0.60;99.90
19389;DHT22;9830;41.876;23.474;2022-12-07T00:33:36;-0.50;99.90
19389;DHT22;9830;41.876;23.474;2022-12-07T00:36:03;-0.60;99.90
19389;DHT22;9830;41.876;23.474;2022-12-07T00:38:32;-0.60;99.90
19389;DHT22;9830;41.876;23.474;2022-12-07T00:41:03;-0.60;99.90
19389;DHT22;9830;41.876;23.474;2022-12-07T00:43:30;-0.50;99.90
19389;DHT22;9830;41.876;23.474;2022-12-07T00:45:56;-0.50;99.90
19389;DHT22;9830;41.876;23.474;2022-12-07T00:48:22;-0.60;99.90
19389;DHT22;9830;41.876;23.474;2022-12-07T00:50:48;-0.60;99.90
19389;DHT22;9830;41.876;23.474;2022-12-07T00:53:15;-0.40;99.90
19389;DHT22;9830;41.876;23.474;2022-12-07T00:55:40;-0.40;99.90
19389;DHT22;9830;41.876;23.474;2022-12-07T00:58:06;-0.50;99.90
19389;DHT22;9830;41.876;23.474;2022-12-07T01:00:32;-0.50;99.90
19389;DHT22;9830;41.876;23.474;2022-12-07T01:02:59;-0.60;99.90
19389;DHT22;9830;41.876;23.474;2022-12-07T01:05:24;-0.60;99.90
19389;DHT22;9830;41.876;23.474;2022-12-07T01:07:50;-0.70;99.90
19389;DHT22;9830;41.876;23.474;2022-12-07T01:10:16;-0.70;99.90
19389;DHT22;9830;41.876;23.474;2022-12-07T01:12:41;-0.70;99.90
19389;DHT22;9830;41.876;23.474;2022-12-07T01:15:08;-0.70;99.90
19389;DHT22;9830;41.876;23.474;2022-12-07T01:17:34;-0.70;99.90
19389;DHT22;9830;41.876;23.474;2022-12-07T01:20:01;-0.80;99.90
19389;DHT22;9830;41.876;23.474;2022-12-07T01:22:27;-0.70;99.90
19389;DHT22;9830;41.876;23.474;2022-12-07T01:24:52;-0.80;99.90
19389;DHT22;9830;41.876;23.474;2022-12-07T01:27:18;-0.70;99.90
19389;DHT22;9830;41.876;23.474;2022-12-07T01:29:44;-0.80;99.90
19389;DHT22;9830;41.876;23.474;2022-12-07T01:32:10;-0.80;99.90
19389;DHT22;9830;41.876;23.474;2022-12-07T01:34:36;-0.80;99.90
19389;DHT22;9830;41.876;23.474;2022-12-07T01:37:01;-0.80;99.90
19389;DHT22;9830;41.876;23.474;2022-12-07T01:39:27;-0.80;99.90
19389;DHT22;9830;41.876;23.474;2022-12-07T01:41:53;-0.80;99.90
19389;DHT22;9830;41.876;23.474;2022-12-07T01:44:23;-0.70;99.90
19389;DHT22;9830;41.876;23.474;2022-12-07T01:46:54;-0.80;99.90
19389;DHT22;9830;41.876;23.474;2022-12-07T01:49:33;-0.80;99.90
19389;DHT22;9830;41.876;23.474;2022-12-07T01:52:21;-0.70;99.90
19389;DHT22;9830;41.876;23.474;2022-12-07T01:54:49;-0.80;99.90
19389;DHT22;9830;41.876;23.474;2022-12-07T01:57:17;-0.80;99.90
19389;DHT22;9830;41.876;23.474;2022-12-07T01:59:45;-0.80;99.90
19389;DHT22;9830;41.876;23.474;2022-12-07T02:02:30;-0.80;99.90
19389;DHT22;9830;41.876;23.474;2022-12-07T02:04:59;-0.80;99.90
19389;DHT22;9830;41.876;23.474;2022-12-07T02:07:27;-0.80;99.90
19389;DHT22;9830;41.876;23.474;2022-12-07T02:09:53;-0.80;99.90
19389;DHT22;9830;41.876;23.474;2022-12-07T02:12:19;-0.90;99.90
19389;DHT22;9830;41.876;23.474;2022-12-07T02:14:46;-0.90;99.90
19389;DHT22;9830;41.876;23.474;2022-12-07T02:17:24;-0.90;99.90
19389;DHT22;9830;41.876;23.474;2022-12-07T02:27:59;-0.80;99.90
19389;DHT22;9830;41.876;23.474;2022-12-07T02:30:31;-0.70;99.90
19389;DHT22;9830;41.876;23.474;2022-12-07T02:33:14;-0.70;99.90
19389;DHT22;9830;41.876;23.474;2022-12-07T02:38:38;-0.50;99.90
19389;DHT22;9830;41.876;23.474;2022-12-07T02:46:12;-0.30;99.90
19389;DHT22;9830;41.876;23.474;2022-12-07T02:48:41;-0.30;99.90
19389;DHT22;9830;41.876;23.474;2022-12-07T02:51:08;-0.30;99.90
19389;DHT22;9830;41.876;23.474;2022-12-07T03:01:36;-0.30;99.90
19389;DHT22;9830;41.876;23.474;2022-12-07T03:10:05;-0.40;99.90
19389;DHT22;9830;41.876;23.474;2022-12-07T03:12:42;-0.40;99.90
19389;DHT22;9830;41.876;23.474;2022-12-07T03:15:40;-0.40;99.90
19389;DHT22;9830;41.876;23.474;2022-12-07T03:18:04;-0.40;99.90
19389;DHT22;9830;41.876;23.474;2022-12-07T03:20:32;-0.30;99.90
19389;DHT22;9830;41.876;23.474;2022-12-07T03:22:59;-0.30;99.90
19389;DHT22;9830;41.876;23.474;2022-12-07T03:25:26;-0.30;99.90
19389;DHT22;9830;41.876;23.474;2022-12-07T03:28:05;-0.40;99.90
19389;DHT22;9830;41.876;23.474;2022-12-07T03:31:11;-0.30;99.90
19389;DHT22;9830;41.876;23.474;2022-12-07T03:33:59;-0.30;99.90
19389;DHT22;9830;41.876;23.474;2022-12-07T03:36:44;-0.30;99.90
19389;DHT22;9830;41.876;23.474;2022-12-07T03:41:57;-0.20;99.90
19389;DHT22;9830;41.876;23.474;2022-12-07T03:44:25;-0.10;99.90
19389;DHT22;9830;41.876;23.474;2022-12-07T03:47:16;0.00;99.90
19389;DHT22;9830;41.876;23.474;2022-12-07T03:49:59;0.00;99.90
19389;DHT22;9830;41.876;23.474;2022-12-07T03:52:56;0.10;99.90
19389;DHT22;9830;41.876;23.474;2022-12-07T03:55:30;0.20;99.90
19389;DHT22;9830;41.876;23.474;2022-12-07T03:58:10;0.20;99.90
19389;DHT22;9830;41.876;23.474;2022-12-07T04:00:36;0.30;99.90
19389;DHT22;9830;41.876;23.474;2022-12-07T04:03:02;0.30;99.90
19389;DHT22;9830;41.876;23.474;2022-12-07T04:05:28;0.40;99.90
19389;DHT22;9830;41.876;23.474;2022-12-07T04:07:54;0.40;99.90
19389;DHT22;9830;41.876;23.474;2022-12-07T04:10:20;0.50;99.90
19389;DHT22;9830;41.876;23.474;2022-12-07T04:12:46;0.50;99.90
19389;DHT22;9830;41.876;23.474;2022-12-07T04:15:12;0.50;99.90
19389;DHT22;9830;41.876;23.474;2022-12-07T04:17:38;0.60;99.90
19389;DHT22;9830;41.876;23.474;2022-12-07T04:20:04;0.70;99.90
19389;DHT22;9830;41.876;23.474;2022-12-07T04:22:31;0.70;99.90
19389;DHT22;9830;41.876;23.474;2022-12-07T04:24:56;0.80;99.90
19389;DHT22;9830;41.876;23.474;2022-12-07T04:27:22;0.70;99.90
19389;DHT22;9830;41.876;23.474;2022-12-07T04:29:48;0.70;99.90
19389;DHT22;9830;41.876;23.474;2022-12-07T04:32:13;0.70;99.90
19389;DHT22;9830;41.876;23.474;2022-12-07T04:34:39;0.60;99.90
19389;DHT22;9830;41.876;23.474;2022-12-07T04:37:05;0.70;99.90
19389;DHT22;9830;41.876;23.474;2022-12-07T04:39:32;0.70;99.90
19389;DHT22;9830;41.876;23.474;2022-12-07T04:41:58;0.80;99.90
19389;DHT22;9830;41.876;23.474;2022-12-07T04:44:25;0.80;99.90
19389;DHT22;9830;41.876;23.474;2022-12-07T04:46:51;0.80;99.90
19389;DHT22;9830;41.876;23.474;2022-12-07T04:49:18;0.90;99.90
19389;DHT22;9830;41.876;23.474;2022-12-07T04:51:44;0.90;99.90
19389;DHT22;9830;41.876;23.474;2022-12-07T04:54:10;0.90;99.90
19389;DHT22;9830;41.876;23.474;2022-12-07T04:56:36;1.00;99.90
19389;DHT22;9830;41.876;23.474;2022-12-07T04:59:03;0.90;99.90
19389;DHT22;9830;41.876;23.474;2022-12-07T05:01:29;1.00;99.90
19389;DHT22;9830;41.876;23.474;2022-12-07T05:03:54;1.00;99.90
19389;DHT22;9830;41.876;23.474;2022-12-07T05:06:20;0.90;99.90
19389;DHT22;9830;41.876;23.474;2022-12-07T05:08:46;0.90;99.90
19389;DHT22;9830;41.876;23.474;2022-12-07T05:11:12;1.00;99.90
19389;DHT22;9830;41.876;23.474;2022-12-07T05:13:56;1.00;99.90
19389;DHT22;9830;41.876;23.474;2022-12-07T05:16:22;1.00;99.90
19389;DHT22;9830;41.876;23.474;2022-12-07T05:18:48;1.00;99.90
19389;DHT22;9830;41.876;23.474;2022-12-07T05:21:14;1.00;99.90
19389;DHT22;9830;41.876;23.474;2022-12-07T05:23:39;1.00;99.90
19389;DHT22;9830;41.876;23.474;2022-12-07T05:26:05;1.00;99.90
19389;DHT22;9830;41.876;23.474;2022-12-07T05:28:31;1.00;99.90
19389;DHT22;9830;41.876;23.474;2022-12-07T05:30:56;1.00;99.90
19389;DHT22;9830;41.876;23.474;2022-12-07T05:33:22;1.00;99.90
19389;DHT22;9830;41.876;23.474;2022-12-07T05:35:48;1.10;99.90
19389;DHT22;9830;41.876;23.474;2022-12-07T05:38:13;1.10;99.90
19389;DHT22;9830;41.876;23.474;2022-12-07T05:40:39;1.10;99.90
19389;DHT22;9830;41.876;23.474;2022-12-07T05:43:05;1.20;99.90
19389;DHT22;9830;41.876;23.474;2022-12-07T05:45:30;1.20;99.90
19389;DHT22;9830;41.876;23.474;2022-12-07T05:47:56;1.30;99.90
19389;DHT22;9830;41.876;23.474;2022-12-07T05:50:22;1.30;99.90
19389;DHT22;9830;41.876;23.474;2022-12-07T05:52:47;1.30;99.90
19389;DHT22;9830;41.876;23.474;2022-12-07T05:55:13;1.40;99.90
19389;DHT22;9830;41.876;23.474;2022-12-07T05:57:39;1.40;99.90
19389;DHT22;9830;41.876;23.474;2022-12-07T06:00:05;1.40;99.90
19389;DHT22;9830;41.876;23.474;2022-12-07T06:02:31;1.40;99.90
19389;DHT22;9830;41.876;23.474;2022-12-07T06:04:56;1.40;99.90
19389;DHT22;9830;41.876;23.474;2022-12-07T06:07:22;1.40;99.90
19389;DHT22;9830;41.876;23.474;2022-12-07T06:09:48;1.50;99.90
19389;DHT22;9830;41.876;23.474;2022-12-07T06:12:13;1.60;99.90
19389;DHT22;9830;41.876;23.474;2022-12-07T06:14:58;1.60;99.90
19389;DHT22;9830;41.876;23.474;2022-12-07T06:17:24;1.60;99.90
19389;DHT22;9830;41.876;23.474;2022-12-07T06:19:50;1.70;99.90
19389;DHT22;9830;41.876;23.474;2022-12-07T06:22:16;1.70;99.90
19389;DHT22;9830;41.876;23.474;2022-12-07T06:24:49;1.70;99.90
19389;DHT22;9830;41.876;23.474;2022-12-07T06:27:15;1.90;99.90
19389;DHT22;9830;41.876;23.474;2022-12-07T06:29:41;1.90;99.90
19389;DHT22;9830;41.876;23.474;2022-12-07T06:32:06;1.90;99.90
19389;DHT22;9830;41.876;23.474;2022-12-07T06:34:32;2.00;99.90
19389;DHT22;9830;41.876;23.474;2022-12-07T06:36:58;2.10;99.90
19389;DHT22;9830;41.876;23.474;2022-12-07T06:39:26;2.20;99.90
19389;DHT22;9830;41.876;23.474;2022-12-07T06:41:52;2.30;99.90
19389;DHT22;9830;41.876;23.474;2022-12-07T06:44:19;2.30;99.90
19389;DHT22;9830;41.876;23.474;2022-12-07T06:46:45;2.40;99.90
19389;DHT22;9830;41.876;23.474;2022-12-07T06:49:11;2.40;99.90
19389;DHT22;9830;41.876;23.474;2022-12-07T06:51:38;2.50;99.90
19389;DHT22;9830;41.876;23.474;2022-12-07T06:54:07;2.80;99.90
19389;DHT22;9830;41.876;23.474;2022-12-07T06:56:33;2.90;99.90
19389;DHT22;9830;41.876;23.474;2022-12-07T06:58:59;2.90;99.90
19389;DHT22;9830;41.876;23.474;2022-12-07T07:01:25;3.00;99.90
19389;DHT22;9830;41.876;23.474;2022-12-07T07:03:50;3.20;99.90
19389;DHT22;9830;41.876;23.474;2022-12-07T07:06:16;3.20;99.90
19389;DHT22;9830;41.876;23.474;2022-12-07T07:08:42;3.40;99.90
19389;DHT22;9830;41.876;23.474;2022-12-07T07:11:08;3.50;99.90
19389;DHT22;9830;41.876;23.474;2022-12-07T07:13:34;3.50;99.90
19389;DHT22;9830;41.876;23.474;2022-12-07T07:16:00;3.40;99.90
19389;DHT22;9830;41.876;23.474;2022-12-07T07:18:26;3.50;99.90
19389;DHT22;9830;41.876;23.474;2022-12-07T07:20:53;3.70;99.90
19389;DHT22;9830;41.876;23.474;2022-12-07T07:23:19;3.80;99.90
19389;DHT22;9830;41.876;23.474;2022-12-07T07:25:46;4.10;99.90
19389;DHT22;9830;41.876;23.474;2022-12-07T07:28:11;4.20;99.90
19389;DHT22;9830;41.876;23.474;2022-12-07T07:30:37;4.20;99.90
19389;DHT22;9830;41.876;23.474;2022-12-07T07:33:04;4.30;99.90
19389;DHT22;9830;41.876;23.474;2022-12-07T07:35:31;4.30;99.90
19389;DHT22;9830;41.876;23.474;2022-12-07T07:37:58;4.40;99.90
19389;DHT22;9830;41.876;23.474;2022-12-07T07:40:24;4.20;99.90
19389;DHT22;9830;41.876;23.474;2022-12-07T07:42:51;4.10;99.90
19389;DHT22;9830;41.876;23.474;2022-12-07T07:45:17;4.10;99.90
19389;DHT22;9830;41.876;23.474;2022-12-07T07:47:43;4.40;99.90
19389;DHT22;9830;41.876;23.474;2022-12-07T07:50:09;4.50;99.90
19389;DHT22;9830;41.876;23.474;2022-12-07T07:52:35;4.50;99.90
19389;DHT22;9830;41.876;23.474;2022-12-07T07:55:00;4.70;99.90
19389;DHT22;9830;41.876;23.474;2022-12-07T07:57:26;4.60;99.90
19389;DHT22;9830;41.876;23.474;2022-12-07T07:59:52;4.50;99.90
19389;DHT22;9830;41.876;23.474;2022-12-07T08:02:19;4.60;99.90
19389;DHT22;9830;41.876;23.474;2022-12-07T08:04:45;4.70;99.90
19389;DHT22;9830;41.876;23.474;2022-12-07T08:07:14;4.80;99.90
19389;DHT22;9830;41.876;23.474;2022-12-07T08:09:40;4.70;99.90
19389;DHT22;9830;41.876;23.474;2022-12-07T08:12:06;4.70;99.90
19389;DHT22;9830;41.876;23.474;2022-12-07T08:14:32;4.70;99.90
19389;DHT22;9830;41.876;23.474;2022-12-07T08:16:58;4.70;99.90
19389;DHT22;9830;41.876;23.474;2022-12-07T08:19:23;4.70;99.90
19389;DHT22;9830;41.876;23.474;2022-12-07T08:21:49;4.80;99.90
19389;DHT22;9830;41.876;23.474;2022-12-07T08:24:16;4.90;99.90
19389;DHT22;9830;41.876;23.474;2022-12-07T08:26:42;4.80;99.90
19389;DHT22;9830;41.876;23.474;2022-12-07T08:29:08;4.80;99.90
19389;DHT22;9830;41.876;23.474;2022-12-07T08:31:34;4.80;99.90
19389;DHT22;9830;41.876;23.474;2022-12-07T08:34:00;5.10;99.90
19389;DHT22;9830;41.876;23.474;2022-12-07T08:36:25;5.30;99.90
19389;DHT22;9830;41.876;23.474;2022-12-07T08:38:51;5.70;99.90
19389;DHT22;9830;41.876;23.474;2022-12-07T08:41:17;5.50;99.90
19389;DHT22;9830;41.876;23.474;2022-12-07T08:43:42;5.40;99.90
19389;DHT22;9830;41.876;23.474;2022-12-07T08:48:55;5.80;99.90
19389;DHT22;9830;41.876;23.474;2022-12-07T08:51:22;6.10;99.90
19389;DHT22;9830;41.876;23.474;2022-12-07T08:53:49;6.20;99.90
19389;DHT22;9830;41.876;23.474;2022-12-07T08:56:16;6.30;99.90
19389;DHT22;9830;41.876;23.474;2022-12-07T08:58:42;6.10;99.90
19389;DHT22;9830;41.876;23.474;2022-12-07T09:01:08;6.30;99.90
19389;DHT22;9830;41.876;23.474;2022-12-07T09:03:34;6.70;99.90
19389;DHT22;9830;41.876;23.474;2022-12-07T09:06:00;7.00;99.90
19389;DHT22;9830;41.876;23.474;2022-12-07T09:08:40;7.30;99.90
19389;DHT22;9830;41.876;23.474;2022-12-07T09:11:07;7.00;99.90
19389;DHT22;9830;41.876;23.474;2022-12-07T09:13:33;6.90;99.90
19389;DHT22;9830;41.876;23.474;2022-12-07T09:15:58;6.90;99.90
19389;DHT22;9830;41.876;23.474;2022-12-07T09:18:24;6.90;99.90
19389;DHT22;9830;41.876;23.474;2022-12-07T09:20:50;7.00;99.90
19389;DHT22;9830;41.876;23.474;2022-12-07T09:23:16;7.30;99.90
19389;DHT22;9830;41.876;23.474;2022-12-07T09:25:42;7.50;99.90
19389;DHT22;9830;41.876;23.474;2022-12-07T09:28:08;7.50;99.90
19389;DHT22;9830;41.876;23.474;2022-12-07T09:30:34;7.50;99.90
19389;DHT22;9830;41.876;23.474;2022-12-07T09:32:59;7.40;99.90
19389;DHT22;9830;41.876;23.474;2022-12-07T09:35:25;7.50;99.90
19389;DHT22;9830;41.876;23.474;2022-12-07T09:37:51;7.50;99.90
19389;DHT22;9830;41.876;23.474;2022-12-07T09:40:19;8.00;99.90
19389;DHT22;9830;41.876;23.474;2022-12-07T09:42:49;7.80;99.90
19389;DHT22;9830;41.876;23.474;2022-12-07T09:45:23;8.00;99.90
19389;DHT22;9830;41.876;23.474;2022-12-07T09:47:50;8.00;99.90
19389;DHT22;9830;41.876;23.474;2022-12-07T09:50:20;7.90;99.90
19389;DHT22;9830;41.876;23.474;2022-12-07T09:52:47;8.00;99.90
19389;DHT22;9830;41.876;23.474;2022-12-07T09:55:18;8.20;99.90
19389;DHT22;9830;41.876;23.474;2022-12-07T09:57:45;8.40;99.90
19389;DHT22;9830;41.876;23.474;2022-12-07T10:00:16;8.20;99.90
19389;DHT22;9830;41.876;23.474;2022-12-07T10:02:44;8.50;99.90
19389;DHT22;9830;41.876;23.474;2022-12-07T10:05:15;9.10;99.90
19389;DHT22;9830;41.876;23.474;2022-12-07T10:07:42;9.30;99.90
19389;DHT22;9830;41.876;23.474;2022-12-07T10:10:19;9.50;99.90
19389;DHT22;9830;41.876;23.474;2022-12-07T10:12:59;9.40;99.90
19389;DHT22;9830;41.876;23.474;2022-12-07T10:18:38;9.20;99.90
19389;DHT22;9830;41.876;23.474;2022-12-07T10:21:19;9.30;99.90
19389;DHT22;9830;41.876;23.474;2022-12-07T10:26:38;9.60;99.90
19389;DHT22;9830;41.876;23.474;2022-12-07T10:34:46;9.20;99.90
19389;DHT22;9830;41.876;23.474;2022-12-07T10:37:19;9.10;99.90
19389;DHT22;9830;41.876;23.474;2022-12-07T10:39:53;8.90;99.90
19389;DHT22;9830;41.876;23.474;2022-12-07T10:42:30;8.90;99.90
19389;DHT22;9830;41.876;23.474;2022-12-07T10:45:15;8.90;99.90
19389;DHT22;9830;41.876;23.474;2022-12-07T11:01:39;9.00;99.90
19389;DHT22;9830;41.876;23.474;2022-12-07T11:07:11;10.20;99.90
19389;DHT22;9830;41.876;23.474;2022-12-07T11:10:00;11.00;98.80
19389;DHT22;9830;41.876;23.474;2022-12-07T11:32:14;11.60;93.40
19389;DHT22;9830;41.876;23.474;2022-12-07T11:37:35;12.30;90.00
19389;DHT22;9830;41.876;23.474;2022-12-07T11:40:15;12.00;90.70
19389;DHT22;9830;41.876;23.474;2022-12-07T11:42:58;11.60;92.50
19389;DHT22;9830;41.876;23.474;2022-12-07T11:45:32;11.80;93.30
19389;DHT22;9830;41.876;23.474;2022-12-07T11:47:59;11.70;93.80
19389;DHT22;9830;41.876;23.474;2022-12-07T11:50:45;11.70;92.00
19389;DHT22;9830;41.876;23.474;2022-12-07T11:53:22;11.70;92.00
19389;DHT22;9830;41.876;23.474;2022-12-07T11:58:47;11.60;93.00
19389;DHT22;9830;41.876;23.474;2022-12-07T12:06:44;10.90;96.10
19389;DHT22;9830;41.876;23.474;2022-12-07T12:09:21;10.60;96.50
19389;DHT22;9830;41.876;23.474;2022-12-07T12:19:41;10.20;96.90
19389;DHT22;9830;41.876;23.474;2022-12-07T12:22:21;10.00;98.00
19389;DHT22;9830;41.876;23.474;2022-12-07T12:24:52;10.00;97.80
19389;DHT22;9830;41.876;23.474;2022-12-07T12:27:31;10.30;96.50
19389;DHT22;9830;41.876;23.474;2022-12-07T12:30:03;9.90;97.60
19389;DHT22;9830;41.876;23.474;2022-12-07T12:32:41;9.90;97.50
19389;DHT22;9830;41.876;23.474;2022-12-07T12:35:30;9.80;99.60
19389;DHT22;9830;41.876;23.474;2022-12-07T12:40:50;9.60;99.90
19389;DHT22;9830;41.876;23.474;2022-12-07T12:43:42;9.70;99.90
19389;DHT22;9830;41.876;23.474;2022-12-07T12:46:36;10.00;99.10
19389;DHT22;9830;41.876;23.474;2022-12-07T12:51:51;9.80;99.00
19389;DHT22;9830;41.876;23.474;2022-12-07T12:59:32;10.30;98.10
19389;DHT22;9830;41.876;23.474;2022-12-07T13:02:20;10.50;97.40
19389;DHT22;9830;41.876;23.474;2022-12-07T13:08:01;10.00;99.00
19389;DHT22;9830;41.876;23.474;2022-12-07T13:13:28;9.40;99.90
19389;DHT22;9830;41.876;23.474;2022-12-07T13:15:54;9.20;99.90
19389;DHT22;9830;41.876;23.474;2022-12-07T13:18:24;9.10;99.90
19389;DHT22;9830;41.876;23.474;2022-12-07T13:26:48;8.80;99.90
19389;DHT22;9830;41.876;23.474;2022-12-07T13:29:13;8.80;99.90
19389;DHT22;9830;41.876;23.474;2022-12-07T13:31:55;8.80;99.90
19389;DHT22;9830;41.876;23.474;2022-12-07T13:34:39;8.90;99.90
19389;DHT22;9830;41.876;23.474;2022-12-07T13:39:52;8.80;99.90
19389;DHT22;9830;41.876;23.474;2022-12-07T13:42:26;8.80;99.90
19389;DHT22;9830;41.876;23.474;2022-12-07T13:44:52;8.80;99.90
19389;DHT22;9830;41.876;23.474;2022-12-07T13:49:51;8.80;99.90
19389;DHT22;9830;41.876;23.474;2022-12-07T13:52:25;8.70;99.90
19389;DHT22;9830;41.876;23.474;2022-12-07T13:57:25;8.50;99.90
19389;DHT22;9830;41.876;23.474;2022-12-07T13:59:51;8.40;99.90
19389;DHT22;9830;41.876;23.474;2022-12-07T14:04:45;8.10;99.90
19389;DHT22;9830;41.876;23.474;2022-12-07T14:07:28;7.90;99.90
19389;DHT22;9830;41.876;23.474;2022-12-07T14:12:25;7.60;99.90
19389;DHT22;9830;41.876;23.474;2022-12-07T14:14:52;7.50;99.90
19389;DHT22;9830;41.876;23.474;2022-12-07T14:17:23;7.30;99.90
19389;DHT22;9830;41.876;23.474;2022-12-07T14:20:00;7.30;99.90
19389;DHT22;9830;41.876;23.474;2022-12-07T14:22:32;7.20;99.90
19389;DHT22;9830;41.876;23.474;2022-12-07T14:27:31;6.90;99.90
19389;DHT22;9830;41.876;23.474;2022-12-07T14:30:00;6.80;99.90
19389;DHT22;9830;41.876;23.474;2022-12-07T14:32:28;6.70;99.90
19389;DHT22;9830;41.876;23.474;2022-12-07T14:35:09;6.60;99.90
19389;DHT22;9830;41.876;23.474;2022-12-07T14:37:39;6.40;99.90
19389;DHT22;9830;41.876;23.474;2022-12-07T14:40:06;6.30;99.90
19389;DHT22;9830;41.876;23.474;2022-12-07T14:42:33;6.20;99.90
19389;DHT22;9830;41.876;23.474;2022-12-07T14:44:59;6.00;99.90
19389;DHT22;9830;41.876;23.474;2022-12-07T14:47:26;5.80;99.90
19389;DHT22;9830;41.876;23.474;2022-12-07T14:49:52;5.70;99.90
19389;DHT22;9830;41.876;23.474;2022-12-07T14:52:23;5.50;99.90
19389;DHT22;9830;41.876;23.474;2022-12-07T14:54:50;5.30;99.90
19389;DHT22;9830;41.876;23.474;2022-12-07T14:57:16;5.20;99.90
19389;DHT22;9830;41.876;23.474;2022-12-07T14:59:41;5.00;99.90
19389;DHT22;9830;41.876;23.474;2022-12-07T15:02:10;5.00;99.90
19389;DHT22;9830;41.876;23.474;2022-12-07T15:04:36;4.90;99.90
19389;DHT22;9830;41.876;23.474;2022-12-07T15:07:04;4.70;99.90
19389;DHT22;9830;41.876;23.474;2022-12-07T15:09:30;4.60;99.90
19389;DHT22;9830;41.876;23.474;2022-12-07T15:11:56;4.50;99.90
19389;DHT22;9830;41.876;23.474;2022-12-07T15:14:21;4.30;99.90
19389;DHT22;9830;41.876;23.474;2022-12-07T15:16:47;4.30;99.90
19389;DHT22;9830;41.876;23.474;2022-12-07T15:19:21;4.20;99.90
19389;DHT22;9830;41.876;23.474;2022-12-07T15:21:51;4.10;99.90
19389;DHT22;9830;41.876;23.474;2022-12-07T15:24:18;4.00;99.90
19389;DHT22;9830;41.876;23.474;2022-12-07T15:26:45;4.10;99.90
19389;DHT22;9830;41.876;23.474;2022-12-07T15:29:11;4.00;99.90
19389;DHT22;9830;41.876;23.474;2022-12-07T15:31:37;4.10;99.90
19389;DHT22;9830;41.876;23.474;2022-12-07T15:34:03;4.10;99.90
19389;DHT22;9830;41.876;23.474;2022-12-07T15:36:31;4.10;99.90
19389;DHT22;9830;41.876;23.474;2022-12-07T15:38:57;4.10;99.90
19389;DHT22;9830;41.876;23.474;2022-12-07T15:41:23;4.10;99.90
19389;DHT22;9830;41.876;23.474;2022-12-07T15:43:49;4.00;99.90
19389;DHT22;9830;41.876;23.474;2022-12-07T15:46:36;4.00;99.90
19389;DHT22;9830;41.876;23.474;2022-12-07T15:49:03;3.90;99.90
19389;DHT22;9830;41.876;23.474;2022-12-07T15:51:29;3.90;99.90
19389;DHT22;9830;41.876;23.474;2022-12-07T15:53:57;3.80;99.90
19389;DHT22;9830;41.876;23.474;2022-12-07T15:56:23;3.70;99.90
19389;DHT22;9830;41.876;23.474;2022-12-07T15:58:49;3.70;99.90
19389;DHT22;9830;41.876;23.474;2022-12-07T16:01:19;3.70;99.90
19389;DHT22;9830;41.876;23.474;2022-12-07T16:03:45;3.70;99.90
19389;DHT22;9830;41.876;23.474;2022-12-07T16:06:16;3.70;99.90
19389;DHT22;9830;41.876;23.474;2022-12-07T16:08:43;3.70;99.90
19389;DHT22;9830;41.876;23.474;2022-12-07T16:11:09;3.60;99.90
19389;DHT22;9830;41.876;23.474;2022-12-07T16:13:35;3.60;99.90
19389;DHT22;9830;41.876;23.474;2022-12-07T16:16:13;3.60;99.90
19389;DHT22;9830;41.876;23.474;2022-12-07T16:18:39;3.60;99.90
19389;DHT22;9830;41.876;23.474;2022-12-07T16:21:05;3.50;99.90
19389;DHT22;9830;41.876;23.474;2022-12-07T16:23:31;3.50;99.90
19389;DHT22;9830;41.876;23.474;2022-12-07T16:26:08;3.40;99.90
19389;DHT22;9830;41.876;23.474;2022-12-07T16:28:34;3.40;99.90
19389;DHT22;9830;41.876;23.474;2022-12-07T16:31:13;3.40;99.90
19389;DHT22;9830;41.876;23.474;2022-12-07T16:33:41;3.40;99.90
19389;DHT22;9830;41.876;23.474;2022-12-07T16:36:08;3.40;99.90
19389;DHT22;9830;41.876;23.474;2022-12-07T16:38:35;3.40;99.90
19389;DHT22;9830;41.876;23.474;2022-12-07T16:41:01;3.40;99.90
19389;DHT22;9830;41.876;23.474;2022-12-07T16:43:26;3.50;99.90
19389;DHT22;9830;41.876;23.474;2022-12-07T16:45:52;3.50;99.90
19389;DHT22;9830;41.876;23.474;2022-12-07T16:48:18;3.40;99.90
19389;DHT22;9830;41.876;23.474;2022-12-07T16:50:44;3.40;99.90
19389;DHT22;9830;41.876;23.474;2022-12-07T16:53:11;3.40;99.90
19389;DHT22;9830;41.876;23.474;2022-12-07T16:55:39;3.40;99.90
19389;DHT22;9830;41.876;23.474;2022-12-07T16:58:05;3.40;99.90
19389;DHT22;9830;41.876;23.474;2022-12-07T17:00:31;3.40;99.90
19389;DHT22;9830;41.876;23.474;2022-12-07T17:02:57;3.30;99.90
19389;DHT22;9830;41.876;23.474;2022-12-07T17:05:23;3.20;99.90
19389;DHT22;9830;41.876;23.474;2022-12-07T17:07:50;3.20;99.90
19389;DHT22;9830;41.876;23.474;2022-12-07T17:10:15;3.10;99.90
19389;DHT22;9830;41.876;23.474;2022-12-07T17:12:41;3.00;99.90
19389;DHT22;9830;41.876;23.474;2022-12-07T17:15:08;3.00;99.90
19389;DHT22;9830;41.876;23.474;2022-12-07T17:17:55;2.90;99.90
19389;DHT22;9830;41.876;23.474;2022-12-07T17:20:23;2.90;99.90
19389;DHT22;9830;41.876;23.474;2022-12-07T17:22:49;2.90;99.90
19389;DHT22;9830;41.876;23.474;2022-12-07T17:25:16;2.80;99.90
19389;DHT22;9830;41.876;23.474;2022-12-07T17:27:41;2.70;99.90
19389;DHT22;9830;41.876;23.474;2022-12-07T17:30:08;2.70;99.90
19389;DHT22;9830;41.876;23.474;2022-12-07T17:32:34;2.60;99.90
19389;DHT22;9830;41.876;23.474;2022-12-07T17:35:00;2.60;99.90
19389;DHT22;9830;41.876;23.474;2022-12-07T17:37:26;2.60;99.90
19389;DHT22;9830;41.876;23.474;2022-12-07T17:39:52;2.60;99.90
19389;DHT22;9830;41.876;23.474;2022-12-07T17:42:23;2.60;99.90
19389;DHT22;9830;41.876;23.474;2022-12-07T17:45:06;2.60;99.90
19389;DHT22;9830;41.876;23.474;2022-12-07T17:47:32;2.70;99.90
19389;DHT22;9830;41.876;23.474;2022-12-07T17:49:57;2.70;99.90
19389;DHT22;9830;41.876;23.474;2022-12-07T17:52:23;2.80;99.90
19389;DHT22;9830;41.876;23.474;2022-12-07T17:55:07;2.80;99.90
19389;DHT22;9830;41.876;23.474;2022-12-07T17:57:33;2.90;99.90
19389;DHT22;9830;41.876;23.474;2022-12-07T17:59:59;2.90;99.90
19389;DHT22;9830;41.876;23.474;2022-12-07T18:02:25;3.00;99.90
19389;DHT22;9830;41.876;23.474;2022-12-07T18:04:51;3.00;99.90
19389;DHT22;9830;41.876;23.474;2022-12-07T18:07:17;2.90;99.90
19389;DHT22;9830;41.876;23.474;2022-12-07T18:09:43;2.90;99.90
19389;DHT22;9830;41.876;23.474;2022-12-07T18:12:09;2.90;99.90
19389;DHT22;9830;41.876;23.474;2022-12-07T18:14:35;2.90;99.90